TimeEST,TemperatureF,Dew PointF,Humidity,Sea Level PressureIn,VisibilityMPH,Wind Direction,Wind SpeedMPH,Gust SpeedMPH,PrecipitationIn,Events,Conditions,WindDirDegrees,DateUTC
12:54 AM,15.1,12.0,88,30.13,10.0,Calm,Calm,-,N/A,,Clear,0,2013-12-28 05:54:00
1:54 AM,14.0,10.0,84,30.10,10.0,Calm,Calm,-,N/A,,Clear,0,2013-12-28 06:54:00
2:54 AM,12.9,10.0,88,30.09,10.0,Calm,Calm,-,N/A,,Mostly Cloudy,0,2013-12-28 07:54:00
3:54 AM,15.1,10.9,84,30.05,10.0,South,3.5,-,N/A,,Overcast,170,2013-12-28 08:54:00
4:54 AM,19.0,15.1,85,30.02,6.0,Calm,Calm,-,N/A,,Overcast,0,2013-12-28 09:54:00
5:54 AM,21.9,19.0,89,30.01,9.0,Calm,Calm,-,N/A,,Overcast,0,2013-12-28 10:54:00
6:54 AM,30.9,24.1,76,29.99,10.0,SSW,4.6,-,0.00,,Overcast,200,2013-12-28 11:54:00
7:54 AM,30.9,25.0,79,30.00,10.0,Calm,Calm,-,0.00,,Overcast,0,2013-12-28 12:54:00
8:54 AM,34.0,25.0,70,29.99,10.0,Variable,4.6,-,N/A,,Overcast,0,2013-12-28 13:54:00
9:54 AM,35.1,26.1,70,30.01,10.0,SW,5.8,-,N/A,,Overcast,230,2013-12-28 14:54:00
10:54 AM,36.0,26.1,67,30.01,8.0,Calm,Calm,-,N/A,,Overcast,0,2013-12-28 15:54:00
11:05 AM,35.6,26.6,70,29.97,7.0,Calm,Calm,-,N/A,,Overcast,0,2013-12-28 16:05:00
11:38 AM,35.6,26.6,70,29.96,8.0,Variable,3.5,-,N/A,,Overcast,0,2013-12-28 16:38:00
11:54 AM,37.0,27.0,67,29.99,7.0,WSW,3.5,-,N/A,,Overcast,250,2013-12-28 16:54:00
12:31 PM,35.6,28.4,75,29.94,7.0,WSW,6.9,-,N/A,,Overcast,250,2013-12-28 17:31:00
12:54 PM,37.0,28.0,70,29.98,10.0,SW,5.8,-,N/A,,Overcast,230,2013-12-28 17:54:00
1:06 PM,37.4,28.4,70,29.94,10.0,WSW,5.8,-,N/A,,Overcast,250,2013-12-28 18:06:00
1:54 PM,37.9,28.9,70,29.98,10.0,Variable,6.9,21.9,N/A,,Overcast,0,2013-12-28 18:54:00
2:54 PM,37.0,28.9,73,29.99,10.0,SW,4.6,-,N/A,,Overcast,220,2013-12-28 19:54:00
3:54 PM,37.0,28.9,73,30.01,10.0,Variable,4.6,-,N/A,,Overcast,0,2013-12-28 20:54:00
4:54 PM,37.0,28.9,73,30.00,10.0,SW,5.8,-,N/A,,Overcast,220,2013-12-28 21:54:00
5:54 PM,34.0,30.0,85,30.01,3.0,Calm,Calm,-,N/A,,Overcast,0,2013-12-28 22:54:00
6:54 PM,36.0,30.0,79,30.02,8.0,WSW,3.5,-,N/A,,Overcast,250,2013-12-28 23:54:00
7:54 PM,36.0,30.0,79,30.04,8.0,Calm,Calm,-,N/A,,Overcast,0,2013-12-29 00:54:00
8:54 PM,37.0,30.0,76,30.06,10.0,Calm,Calm,-,N/A,,Overcast,0,2013-12-29 01:54:00
9:43 PM,37.4,30.2,75,30.01,10.0,Variable,3.5,-,N/A,,Overcast,0,2013-12-29 02:43:00
9:54 PM,37.0,30.0,76,30.03,10.0,Calm,Calm,-,N/A,,Overcast,0,2013-12-29 02:54:00
10:54 PM,34.0,30.9,89,30.01,6.0,Calm,Calm,-,N/A,,Overcast,0,2013-12-29 03:54:00
11:38 PM,33.8,30.2,87,29.97,6.0,Calm,Calm,-,N/A,,Overcast,0,2013-12-29 04:38:00
11:54 PM,33.1,30.0,89,29.99,5.0,Calm,Calm,-,N/A,,Overcast,0,2013-12-29 04:54:00